createdAt,value
2018-04-06T00:01:22.035Z,15.30
2018-04-06T00:03:50.882Z,16.93
2018-04-06T00:06:19.724Z,14.40
2018-04-06T00:08:49.353Z,15.23
2018-04-06T00:11:18.978Z,15.70
2018-04-06T00:13:47.834Z,14.67
2018-04-06T00:16:17.440Z,14.27
2018-04-06T00:18:47.064Z,16.87
2018-04-06T00:21:16.686Z,12.73
2018-04-06T00:23:45.967Z,14.27
2018-04-06T00:26:15.568Z,14.00
2018-04-06T00:28:45.198Z,12.80
2018-04-06T00:31:14.055Z,12.77
2018-04-06T00:33:42.918Z,13.30
2018-04-06T00:36:11.730Z,11.40
2018-04-06T00:38:41.358Z,10.13
2018-04-06T00:41:10.974Z,10.27
2018-04-06T00:43:40.570Z,11.23
2018-04-06T00:46:09.424Z,10.43
2018-04-06T00:48:38.254Z,10.30
2018-04-06T00:51:07.099Z,9.83
2018-04-06T00:53:47.950Z,8.17
2018-04-06T00:56:16.790Z,10.30
2018-04-06T00:58:45.630Z,9.30
2018-04-06T01:01:14.483Z,11.03
2018-04-06T01:03:43.326Z,10.53
2018-04-06T01:06:12.948Z,10.87
2018-04-06T01:08:42.578Z,9.43
2018-04-06T01:11:11.440Z,11.33
2018-04-06T01:13:41.994Z,12.37
2018-04-06T01:16:10.882Z,11.60
2018-04-06T01:18:39.700Z,14.13
2018-04-06T01:21:08.541Z,12.93
2018-04-06T01:23:38.782Z,13.90
2018-04-06T01:26:07.634Z,12.83
2018-04-06T01:28:36.488Z,13.00
2018-04-06T01:31:05.326Z,14.20
2018-04-06T01:33:34.464Z,15.07
2018-04-06T01:36:03.322Z,12.37
2018-04-06T01:38:32.924Z,13.57
2018-04-06T01:41:02.526Z,13.10
2018-04-06T01:43:31.610Z,13.27
2018-04-06T01:46:00.442Z,14.40
2018-04-06T01:48:29.291Z,12.90
2018-04-06T01:50:58.941Z,12.07
2018-04-06T01:53:28.557Z,12.70
2018-04-06T01:55:58.087Z,13.40
2018-04-06T01:58:26.931Z,12.70
2018-04-06T02:00:56.530Z,12.20
2018-04-06T02:03:26.166Z,15.37
2018-04-06T02:05:55.012Z,14.70
2018-04-06T02:08:24.358Z,12.10
2018-04-06T02:10:53.212Z,12.40
2018-04-06T02:13:22.806Z,11.27
2018-04-06T02:15:51.671Z,9.40
2018-04-06T02:18:20.483Z,9.13
2018-04-06T02:20:49.726Z,10.27
2018-04-06T02:23:18.580Z,8.37
2018-04-06T02:25:47.408Z,7.07
2018-04-06T02:28:16.451Z,8.20
2018-04-06T02:30:46.382Z,9.60
2018-04-06T02:33:15.213Z,8.27
2018-04-06T02:35:44.071Z,7.50
2018-04-06T02:38:13.662Z,8.10
2018-04-06T02:40:42.494Z,7.63
2018-04-06T02:43:11.310Z,7.67
2018-04-06T02:45:40.184Z,7.00
2018-04-06T02:48:09.018Z,7.20
2018-04-06T02:50:37.879Z,6.60
2018-04-06T02:53:06.695Z,6.60
2018-04-06T02:55:36.307Z,8.40
2018-04-06T02:58:05.903Z,8.03
2018-04-06T03:00:34.738Z,8.23
2018-04-06T03:03:03.676Z,7.00
2018-04-06T03:05:33.918Z,6.40
2018-04-06T03:08:03.501Z,6.70
2018-04-06T03:10:32.350Z,6.60
2018-04-06T03:13:01.185Z,7.33
2018-04-06T03:15:31.548Z,7.80
2018-04-06T03:18:00.403Z,6.50
2018-04-06T03:20:29.232Z,6.27
2018-04-06T03:22:58.082Z,6.33
2018-04-06T03:25:26.914Z,6.00
2018-04-06T03:27:55.768Z,5.80
2018-04-06T03:30:25.359Z,6.87
2018-04-06T03:32:54.194Z,6.23
2018-04-06T03:35:23.032Z,6.00
2018-04-06T03:37:51.866Z,6.03
2018-04-06T03:40:20.708Z,5.93
2018-04-06T03:42:50.262Z,5.57
2018-04-06T03:45:19.263Z,6.30
2018-04-06T03:47:48.347Z,7.30
2018-04-06T03:50:17.187Z,6.20
2018-04-06T03:52:47.235Z,6.40
2018-04-06T03:55:16.074Z,7.00
2018-04-06T03:57:44.933Z,6.37
2018-04-06T04:00:14.522Z,7.33
2018-04-06T04:02:43.602Z,9.30
2018-04-06T04:05:12.643Z,8.10
2018-04-06T04:07:41.504Z,7.00
2018-04-06T04:10:11.442Z,5.80
2018-04-06T04:12:40.600Z,5.10
2018-04-06T04:15:09.430Z,6.33
2018-04-06T04:17:38.269Z,6.10
2018-04-06T04:20:07.118Z,6.90
2018-04-06T04:22:35.949Z,6.23
2018-04-06T04:25:04.794Z,6.50
2018-04-06T04:27:33.750Z,6.30
2018-04-06T04:30:03.387Z,6.27
2018-04-06T04:32:32.215Z,5.87
2018-04-06T04:35:01.036Z,5.97
2018-04-06T04:37:30.659Z,6.90
2018-04-06T04:39:59.674Z,6.33
2018-04-06T04:42:29.234Z,5.60
2018-04-06T04:44:58.058Z,6.10
2018-04-06T04:47:26.896Z,6.10
2018-04-06T04:49:55.734Z,6.27
2018-04-06T04:52:25.452Z,6.77
2018-04-06T04:54:54.296Z,6.57
2018-04-06T04:57:23.132Z,5.93
2018-04-06T04:59:51.999Z,5.53
2018-04-06T05:02:20.871Z,6.80
2018-04-06T05:04:50.457Z,6.10
2018-04-06T05:07:19.283Z,6.00
2018-04-06T05:09:48.132Z,6.10
2018-04-06T05:12:16.961Z,7.00
2018-04-06T05:14:45.802Z,6.53
2018-04-06T05:17:15.774Z,8.40
2018-04-06T05:19:44.631Z,7.17
2018-04-06T05:22:14.245Z,7.27
2018-04-06T05:24:43.878Z,7.70
2018-04-06T05:27:12.690Z,6.30
2018-04-06T05:29:41.526Z,6.10
2018-04-06T05:32:11.117Z,6.30
2018-04-06T05:34:40.890Z,8.33
2018-04-06T05:37:09.731Z,6.80
2018-04-06T05:39:39.325Z,7.63
2018-04-06T05:42:08.150Z,7.03
2018-04-06T05:44:36.994Z,6.87
2018-04-06T05:47:05.830Z,6.83
2018-04-06T05:49:34.678Z,7.87
2018-04-06T05:52:04.460Z,6.97
2018-04-06T05:54:33.267Z,7.00
2018-04-06T05:57:02.883Z,7.17
2018-04-06T05:59:32.482Z,7.13
2018-04-06T06:02:02.220Z,6.53
2018-04-06T06:04:31.881Z,7.07
2018-04-06T06:07:00.726Z,6.60
2018-04-06T06:09:29.562Z,6.67
2018-04-06T06:11:58.428Z,7.20
2018-04-06T06:14:27.263Z,6.10
2018-04-06T06:16:56.878Z,5.77
2018-04-06T06:19:25.710Z,6.40
2018-04-06T06:21:55.499Z,6.63
2018-04-06T06:24:24.335Z,6.53
2018-04-06T06:26:53.182Z,7.43
2018-04-06T06:29:22.016Z,6.70
2018-04-06T06:31:50.853Z,7.40
2018-04-06T06:34:19.661Z,6.20
2018-04-06T06:36:48.533Z,6.53
2018-04-06T06:39:17.604Z,6.37
2018-04-06T06:41:47.227Z,7.00
2018-04-06T06:44:16.068Z,6.93
2018-04-06T06:46:44.952Z,6.53
2018-04-06T06:49:14.022Z,6.60
2018-04-06T06:51:43.049Z,6.67
2018-04-06T06:54:11.851Z,6.50
2018-04-06T06:56:41.513Z,6.93
2018-04-06T06:59:10.359Z,6.63
2018-04-06T07:01:39.969Z,5.70
2018-04-06T07:04:08.846Z,6.70
2018-04-06T07:06:37.695Z,5.90
2018-04-06T07:09:06.543Z,6.27
2018-04-06T07:11:35.369Z,6.83
2018-04-06T07:14:04.324Z,6.60
2018-04-06T07:16:33.262Z,6.57
2018-04-06T07:19:02.139Z,7.20
2018-04-06T07:21:31.713Z,6.27
2018-04-06T07:24:01.322Z,6.97
2018-04-06T07:26:30.931Z,6.33
2018-04-06T07:29:00.568Z,5.37
2018-04-06T07:31:29.410Z,6.03
2018-04-06T07:33:58.243Z,6.87
2018-04-06T07:36:27.089Z,5.60
2018-04-06T07:38:55.918Z,5.50
2018-04-06T07:41:24.770Z,5.33
2018-04-06T07:43:53.617Z,6.47
2018-04-06T07:46:22.459Z,6.47
2018-04-06T07:48:51.279Z,5.90
2018-04-06T07:51:20.170Z,5.57
2018-04-06T07:53:49.024Z,5.57
2018-04-06T07:56:18.760Z,6.20
2018-04-06T07:58:47.590Z,6.17
2018-04-06T08:01:16.455Z,5.17
2018-04-06T08:03:45.283Z,5.13
2018-04-06T08:06:15.322Z,5.53
2018-04-06T08:08:44.142Z,5.57
2018-04-06T08:11:13.016Z,5.53
2018-04-06T08:13:41.894Z,5.30
2018-04-06T08:16:11.558Z,4.83
2018-04-06T08:18:40.540Z,5.07
2018-04-06T08:21:09.392Z,4.60
2018-04-06T08:23:38.238Z,5.13
2018-04-06T08:26:07.094Z,5.80
2018-04-06T08:28:35.962Z,5.43
2018-04-06T08:31:04.818Z,5.20
2018-04-06T08:33:34.534Z,4.70
2018-04-06T08:36:04.154Z,5.00
2018-04-06T08:38:33.746Z,3.67
2018-04-06T08:41:03.596Z,4.50
2018-04-06T08:43:32.471Z,5.07
2018-04-06T08:46:02.094Z,6.50
2018-04-06T08:48:30.955Z,4.57
2018-04-06T08:51:00.582Z,4.80
2018-04-06T08:53:29.441Z,4.80
2018-04-06T08:55:59.048Z,4.70
2018-04-06T08:58:27.887Z,4.00
2018-04-06T09:00:56.713Z,4.10
2018-04-06T09:03:25.557Z,4.40
2018-04-06T09:05:54.401Z,4.10
2018-04-06T09:08:23.251Z,3.63
2018-04-06T09:10:52.071Z,4.20
2018-04-06T09:13:21.699Z,4.20
2018-04-06T09:15:50.534Z,5.30
2018-04-06T09:18:20.178Z,4.00
2018-04-06T09:20:49.118Z,4.87
2018-04-06T09:23:18.880Z,4.45
2018-04-06T09:25:47.715Z,3.70
2018-04-06T09:28:16.550Z,4.70
2018-04-06T09:30:45.396Z,3.90
2018-04-06T09:33:14.232Z,3.50
2018-04-06T09:35:43.103Z,3.60
2018-04-06T09:38:12.707Z,3.40
2018-04-06T09:40:42.360Z,3.23
2018-04-06T09:43:11.199Z,3.53
2018-04-06T09:45:40.813Z,3.40
2018-04-06T09:48:10.405Z,4.23
2018-04-06T09:50:39.241Z,3.10
2018-04-06T09:53:08.110Z,4.47
2018-04-06T09:55:37.732Z,3.70
2018-04-06T09:58:06.680Z,3.43
2018-04-06T10:00:36.306Z,3.33
2018-04-06T10:03:05.138Z,3.17
2018-04-06T10:05:34.768Z,3.50
2018-04-06T10:08:03.947Z,2.67
2018-04-06T10:10:33.558Z,2.90
2018-04-06T10:13:03.167Z,2.93
2018-04-06T10:15:32.790Z,3.47
2018-04-06T10:18:02.410Z,2.93
2018-04-06T10:20:31.260Z,3.13
2018-04-06T10:23:00.882Z,2.77
2018-04-06T10:25:30.480Z,2.70
2018-04-06T10:28:00.098Z,2.60
2018-04-06T10:30:30.118Z,2.57
2018-04-06T10:32:58.973Z,2.37
2018-04-06T10:35:27.804Z,2.77
2018-04-06T10:37:56.657Z,2.63
2018-04-06T10:40:25.543Z,2.77
2018-04-06T10:42:54.371Z,2.20
2018-04-06T10:45:23.966Z,2.70
2018-04-06T10:47:53.589Z,1.87
2018-04-06T10:50:22.428Z,1.97
2018-04-06T10:52:51.267Z,2.00
2018-04-06T10:55:20.075Z,2.20
2018-04-06T10:57:48.930Z,2.03
2018-04-06T11:00:18.560Z,2.23
2018-04-06T11:02:47.412Z,1.97
2018-04-06T11:05:17.011Z,1.77
2018-04-06T11:07:46.192Z,1.73
2018-04-06T11:10:15.032Z,2.00
2018-04-06T11:12:43.875Z,1.90
2018-04-06T11:15:12.811Z,2.10
2018-04-06T11:17:41.699Z,1.77
2018-04-06T11:20:10.542Z,1.53
2018-04-06T11:22:40.147Z,1.73
2018-04-06T11:25:09.858Z,2.00
2018-04-06T11:27:38.697Z,1.43
2018-04-06T11:30:07.626Z,2.23
2018-04-06T11:32:36.452Z,1.40
2018-04-06T11:35:05.370Z,2.07
2018-04-06T11:37:35.063Z,1.87
2018-04-06T11:40:03.919Z,2.60
2018-04-06T11:42:33.586Z,5.47
2018-04-06T11:45:02.452Z,2.57
2018-04-06T11:47:31.301Z,2.00
2018-04-06T11:50:00.303Z,1.80
2018-04-06T11:52:29.947Z,1.83
2018-04-06T11:54:59.940Z,1.70
2018-04-06T11:57:29.569Z,1.83
2018-04-06T11:59:59.178Z,1.70
2018-04-06T12:02:28.811Z,1.43
2018-04-06T12:04:57.804Z,1.37
2018-04-06T12:07:26.679Z,2.17
2018-04-06T12:09:56.316Z,2.27
2018-04-06T12:12:25.147Z,1.73
2018-04-06T12:14:54.799Z,1.93
2018-04-06T12:17:23.679Z,1.67
2018-04-06T12:19:53.296Z,3.20
2018-04-06T12:22:22.167Z,1.70
2018-04-06T12:24:51.796Z,1.70
2018-04-06T12:27:20.647Z,2.57
2018-04-06T12:29:50.997Z,2.20
2018-04-06T12:32:20.679Z,2.20
2018-04-06T12:34:49.505Z,1.40
2018-04-06T12:37:18.361Z,1.20
2018-04-06T12:39:47.208Z,1.43
2018-04-06T12:42:16.074Z,1.10
2018-04-06T12:44:45.694Z,1.40
2018-04-06T12:47:14.537Z,1.50
2018-04-06T12:49:44.388Z,1.30
2018-04-06T12:52:13.233Z,1.50
